createdAt,value
2022-10-26T00:01:18.289Z,100.00
2022-10-26T00:03:46.915Z,100.00
2022-10-26T00:06:21.539Z,100.00
2022-10-26T00:08:49.359Z,100.00
2022-10-26T00:11:17.344Z,100.00
2022-10-26T00:13:46.462Z,100.00
2022-10-26T00:16:19.791Z,100.00
2022-10-26T00:18:48.430Z,100.00
2022-10-26T00:21:16.224Z,100.00
2022-10-26T00:23:43.939Z,100.00
2022-10-26T00:26:11.808Z,100.00
2022-10-26T00:28:39.955Z,100.00
2022-10-26T00:31:15.351Z,100.00
2022-10-26T00:33:43.521Z,100.00
2022-10-26T00:36:14.553Z,100.00
2022-10-26T00:38:46.088Z,100.00
2022-10-26T00:41:22.227Z,100.00
2022-10-26T00:43:51.057Z,100.00
2022-10-26T00:46:30.109Z,100.00
2022-10-26T00:49:14.207Z,100.00
2022-10-26T00:51:46.607Z,100.00
2022-10-26T00:54:20.823Z,100.00
2022-10-26T00:56:50.356Z,100.00
2022-10-26T00:59:19.077Z,100.00
2022-10-26T01:01:49.227Z,100.00
2022-10-26T01:04:18.338Z,100.00
2022-10-26T01:06:46.499Z,100.00
2022-10-26T01:09:14.480Z,100.00
2022-10-26T01:11:42.660Z,100.00
2022-10-26T01:14:14.318Z,100.00
2022-10-26T01:16:50.517Z,100.00
2022-10-26T01:20:32.728Z,100.00
2022-10-26T01:23:29.715Z,100.00
2022-10-26T01:26:17.388Z,100.00
2022-10-26T01:29:02.419Z,100.00
2022-10-26T01:31:43.456Z,100.00
2022-10-26T01:34:21.095Z,100.00
2022-10-26T01:37:04.416Z,100.00
2022-10-26T01:39:57.993Z,100.00
2022-10-26T01:42:30.598Z,100.00
2022-10-26T01:45:03.858Z,100.00
2022-10-26T01:47:34.206Z,100.00
2022-10-26T01:50:04.448Z,100.00
2022-10-26T01:52:31.599Z,100.00
2022-10-26T01:55:23.166Z,100.00
2022-10-26T01:57:51.973Z,100.00
2022-10-26T02:00:20.078Z,100.00
2022-10-26T02:03:15.805Z,100.00
2022-10-26T02:05:59.744Z,100.00
2022-10-26T02:09:20.091Z,100.00
2022-10-26T02:11:57.913Z,100.00
2022-10-26T02:14:47.845Z,100.00
2022-10-26T02:17:34.973Z,100.00
2022-10-26T02:20:11.485Z,100.00
2022-10-26T02:22:48.655Z,100.00
2022-10-26T02:25:23.498Z,100.00
2022-10-26T02:27:58.674Z,100.00
2022-10-26T02:30:27.019Z,100.00
2022-10-26T02:32:57.763Z,100.00
2022-10-26T02:35:30.421Z,100.00
2022-10-26T02:38:04.368Z,100.00
2022-10-26T02:40:33.029Z,100.00
2022-10-26T02:43:06.534Z,100.00
2022-10-26T02:45:47.755Z,100.00
2022-10-26T02:48:15.750Z,100.00
2022-10-26T02:51:12.682Z,100.00
2022-10-26T02:53:58.384Z,100.00
2022-10-26T02:56:35.376Z,100.00
2022-10-26T02:59:06.036Z,100.00
2022-10-26T03:01:34.538Z,100.00
2022-10-26T03:04:02.437Z,100.00
2022-10-26T03:06:30.223Z,100.00
2022-10-26T03:08:57.344Z,100.00
2022-10-26T03:11:25.069Z,100.00
2022-10-26T03:13:53.165Z,100.00
2022-10-26T03:16:21.232Z,100.00
2022-10-26T03:18:48.927Z,100.00
2022-10-26T03:21:16.692Z,100.00
2022-10-26T03:23:43.300Z,100.00
2022-10-26T03:26:11.174Z,100.00
2022-10-26T03:28:38.952Z,100.00
2022-10-26T03:31:07.078Z,100.00
2022-10-26T03:33:35.151Z,100.00
2022-10-26T03:36:02.980Z,100.00
2022-10-26T03:38:30.832Z,100.00
2022-10-26T03:40:58.897Z,100.00
2022-10-26T03:43:25.439Z,100.00
2022-10-26T03:45:53.431Z,100.00
2022-10-26T03:48:21.064Z,100.00
2022-10-26T03:50:48.682Z,100.00
2022-10-26T03:53:16.307Z,100.00
2022-10-26T03:55:48.945Z,100.00
2022-10-26T03:58:17.612Z,100.00
2022-10-26T04:00:45.412Z,100.00
2022-10-26T04:03:13.284Z,100.00
2022-10-26T04:05:40.955Z,100.00
2022-10-26T04:08:09.060Z,100.00
2022-10-26T04:10:36.974Z,100.00
2022-10-26T04:13:04.729Z,100.00
2022-10-26T04:15:31.453Z,100.00
2022-10-26T04:18:01.940Z,100.00
2022-10-26T04:20:31.241Z,100.00
2022-10-26T04:23:06.348Z,100.00
2022-10-26T04:25:37.295Z,100.00
2022-10-26T04:28:06.112Z,100.00
2022-10-26T04:30:35.298Z,100.00
2022-10-26T04:33:02.672Z,100.00
2022-10-26T04:35:29.635Z,100.00
2022-10-26T04:38:02.338Z,100.00
2022-10-26T04:40:31.647Z,100.00
2022-10-26T04:43:00.073Z,100.00
2022-10-26T04:45:31.249Z,100.00
2022-10-26T04:48:12.807Z,100.00
2022-10-26T04:50:41.031Z,100.00
2022-10-26T04:53:09.965Z,100.00
2022-10-26T04:55:37.928Z,100.00
2022-10-26T04:58:06.266Z,100.00
2022-10-26T05:00:34.701Z,100.00
2022-10-26T05:03:05.294Z,100.00
2022-10-26T05:05:34.083Z,100.00
2022-10-26T05:08:01.002Z,100.00
2022-10-26T05:10:28.205Z,100.00
2022-10-26T05:12:56.205Z,100.00
2022-10-26T05:15:23.640Z,100.00
2022-10-26T05:17:57.531Z,100.00
2022-10-26T05:20:29.771Z,100.00
2022-10-26T05:23:01.265Z,100.00
2022-10-26T05:25:30.126Z,100.00
2022-10-26T05:28:01.184Z,100.00
2022-10-26T05:30:28.818Z,100.00
2022-10-26T05:32:56.743Z,100.00
2022-10-26T05:35:28.480Z,100.00
2022-10-26T05:38:02.493Z,100.00
2022-10-26T05:40:30.552Z,100.00
2022-10-26T05:43:04.165Z,100.00
2022-10-26T05:45:31.841Z,100.00
2022-10-26T05:48:02.552Z,100.00
2022-10-26T05:50:31.348Z,100.00
2022-10-26T05:52:59.339Z,100.00
2022-10-26T05:55:26.598Z,100.00
2022-10-26T05:57:53.636Z,100.00
2022-10-26T06:00:24.165Z,100.00
2022-10-26T06:06:00.745Z,100.00
2022-10-26T06:08:30.014Z,100.00
2022-10-26T06:10:59.605Z,100.00
2022-10-26T06:13:26.909Z,100.00
2022-10-26T06:16:38.462Z,100.00
2022-10-26T06:19:05.608Z,100.00
2022-10-26T06:21:41.160Z,100.00
2022-10-26T06:24:58.452Z,100.00
2022-10-26T06:28:04.115Z,100.00
2022-10-26T06:30:30.826Z,100.00
2022-10-26T06:33:05.676Z,100.00
2022-10-26T06:35:40.711Z,100.00
2022-10-26T06:38:16.742Z,100.00
2022-10-26T06:40:46.334Z,100.00
2022-10-26T06:43:21.202Z,100.00
2022-10-26T06:45:55.026Z,100.00
2022-10-26T06:48:28.331Z,100.00
2022-10-26T06:50:55.736Z,100.00
2022-10-26T06:56:06.686Z,100.00
2022-10-26T06:58:36.427Z,100.00
2022-10-26T07:01:03.806Z,100.00
2022-10-26T07:03:30.674Z,100.00
2022-10-26T07:05:57.402Z,100.00
2022-10-26T07:08:24.892Z,100.00
2022-10-26T07:10:51.473Z,100.00
2022-10-26T07:13:18.393Z,100.00
2022-10-26T07:15:45.242Z,100.00
2022-10-26T07:18:12.014Z,100.00
2022-10-26T07:20:40.479Z,100.00
2022-10-26T07:23:08.688Z,100.00
2022-10-26T07:25:44.105Z,100.00
2022-10-26T07:28:11.350Z,100.00
2022-10-26T07:30:40.184Z,100.00
2022-10-26T07:33:10.750Z,100.00
2022-10-26T07:35:37.437Z,100.00
2022-10-26T07:38:04.969Z,100.00
2022-10-26T07:40:31.922Z,100.00
2022-10-26T07:43:00.008Z,100.00
2022-10-26T07:45:27.368Z,100.00
2022-10-26T07:47:54.295Z,100.00
2022-10-26T07:50:21.229Z,100.00
2022-10-26T07:52:48.128Z,100.00
2022-10-26T07:55:15.143Z,100.00
2022-10-26T07:57:41.757Z,100.00
2022-10-26T08:00:09.654Z,100.00
2022-10-26T08:02:36.992Z,100.00
2022-10-26T08:05:04.437Z,100.00
2022-10-26T08:07:31.080Z,97.41
2022-10-26T08:09:58.111Z,97.40
2022-10-26T08:12:24.679Z,100.00
2022-10-26T08:14:51.320Z,97.23
2022-10-26T08:17:18.001Z,93.37
2022-10-26T08:19:44.588Z,91.24
2022-10-26T08:22:11.218Z,92.76
2022-10-26T08:24:37.823Z,92.90
2022-10-26T08:27:04.464Z,94.21
2022-10-26T08:29:31.089Z,95.41
2022-10-26T08:31:58.092Z,92.54
2022-10-26T08:34:24.624Z,92.93
2022-10-26T08:36:51.677Z,90.36
2022-10-26T08:39:18.358Z,89.13
2022-10-26T08:41:53.503Z,92.16
2022-10-26T08:44:33.221Z,89.82
2022-10-26T08:47:30.518Z,95.65
2022-10-26T08:50:10.073Z,96.13
2022-10-26T08:52:47.609Z,95.03
2022-10-26T08:55:20.969Z,95.56
2022-10-26T08:57:50.106Z,95.23
2022-10-26T09:00:25.220Z,92.38
2022-10-26T09:02:53.432Z,90.20
2022-10-26T09:05:34.778Z,87.92
2022-10-26T09:08:18.518Z,86.10
2022-10-26T09:11:06.469Z,87.44
2022-10-26T09:13:46.212Z,83.68
2022-10-26T09:16:46.788Z,75.98
2022-10-26T09:19:50.736Z,78.05
2022-10-26T09:22:30.498Z,76.84
2022-10-26T09:25:03.949Z,76.32
2022-10-26T09:27:43.830Z,76.04
2022-10-26T09:30:17.635Z,75.58
2022-10-26T09:32:48.209Z,75.58
2022-10-26T09:35:26.319Z,76.17
2022-10-26T09:38:13.416Z,74.27
2022-10-26T09:40:54.198Z,71.44
2022-10-26T09:43:33.007Z,66.40
2022-10-26T09:45:59.831Z,68.04
2022-10-26T09:48:44.501Z,67.59
2022-10-26T09:51:11.672Z,63.93
2022-10-26T09:53:38.603Z,64.75
2022-10-26T09:56:10.694Z,65.42
2022-10-26T09:58:53.001Z,64.49
2022-10-26T10:01:36.919Z,64.64
2022-10-26T10:04:23.034Z,61.45
2022-10-26T10:07:13.220Z,59.72
2022-10-26T10:09:40.046Z,59.26
2022-10-26T10:12:18.602Z,57.13
2022-10-26T10:14:57.835Z,52.37
2022-10-26T10:17:25.591Z,52.56
2022-10-26T10:19:52.961Z,53.57
2022-10-26T10:22:25.126Z,52.74
2022-10-26T10:25:03.525Z,50.64
2022-10-26T10:27:31.901Z,49.84
2022-10-26T10:30:21.052Z,51.93
2022-10-26T10:33:07.447Z,48.39
2022-10-26T10:35:34.128Z,50.42
2022-10-26T10:38:01.416Z,51.05
2022-10-26T10:40:31.403Z,54.28
2022-10-26T10:43:14.665Z,53.53
2022-10-26T10:45:46.651Z,53.22
2022-10-26T10:48:13.179Z,52.60
2022-10-26T10:50:50.798Z,50.95
2022-10-26T10:53:27.595Z,50.04
2022-10-26T10:56:11.586Z,48.78
2022-10-26T10:58:44.220Z,46.82
2022-10-26T11:01:18.905Z,46.11
2022-10-26T11:04:16.975Z,49.00
2022-10-26T11:06:45.107Z,46.46
2022-10-26T11:09:18.711Z,45.90
2022-10-26T11:11:54.915Z,46.24
2022-10-26T11:14:37.534Z,47.27
2022-10-26T11:17:16.128Z,48.01
2022-10-26T11:19:49.912Z,48.84
2022-10-26T11:22:22.579Z,50.91
2022-10-26T11:24:58.402Z,49.89
2022-10-26T11:27:43.686Z,50.08
2022-10-26T11:30:19.986Z,50.32
2022-10-26T11:33:06.865Z,48.91
2022-10-26T11:35:44.637Z,48.63
2022-10-26T11:38:55.959Z,49.50
2022-10-26T11:41:51.417Z,47.98
2022-10-26T11:44:22.448Z,46.36
2022-10-26T11:46:57.715Z,46.07
2022-10-26T11:50:03.666Z,45.22
2022-10-26T11:52:46.874Z,44.96
2022-10-26T11:55:13.799Z,43.20
2022-10-26T11:57:42.057Z,43.45
2022-10-26T12:00:17.300Z,40.94
2022-10-26T12:02:50.304Z,40.00
2022-10-26T12:05:20.799Z,37.80
2022-10-26T12:07:56.840Z,37.55
2022-10-26T12:10:29.041Z,35.58
2022-10-26T12:13:07.385Z,35.22
2022-10-26T12:18:54.990Z,35.92
2022-10-26T12:21:28.858Z,35.13
2022-10-26T12:23:55.520Z,33.69
2022-10-26T12:26:24.759Z,34.04
2022-10-26T12:29:27.995Z,33.64
2022-10-26T12:31:54.934Z,35.31
2022-10-26T12:34:48.453Z,37.44
2022-10-26T12:37:40.155Z,38.70
2022-10-26T12:40:31.391Z,39.61
2022-10-26T12:43:18.470Z,40.39
2022-10-26T12:45:47.390Z,41.86
2022-10-26T12:48:42.294Z,43.42
2022-10-26T12:51:26.787Z,44.47
2022-10-26T12:54:17.348Z,44.68
2022-10-26T12:56:55.427Z,44.89
2022-10-26T12:59:40.044Z,45.81
2022-10-26T13:02:28.029Z,47.21
2022-10-26T13:05:36.161Z,48.37
2022-10-26T13:08:11.985Z,47.70
2022-10-26T13:10:45.398Z,46.64
2022-10-26T13:13:23.595Z,45.62
2022-10-26T13:15:56.014Z,45.47
2022-10-26T13:18:23.777Z,44.88
2022-10-26T13:21:11.660Z,45.56
2022-10-26T13:23:41.116Z,47.10
2022-10-26T13:26:12.958Z,48.60
2022-10-26T13:28:39.690Z,49.56
2022-10-26T13:31:28.957Z,49.60
2022-10-26T13:37:00.067Z,50.17
2022-10-26T13:39:35.209Z,51.10
2022-10-26T13:42:02.400Z,51.82
2022-10-26T13:44:39.328Z,52.15
2022-10-26T13:47:19.507Z,52.39
2022-10-26T13:49:51.192Z,51.64
2022-10-26T13:52:23.876Z,50.13
2022-10-26T13:55:00.121Z,48.05
2022-10-26T13:57:35.524Z,45.07
2022-10-26T14:00:15.920Z,43.97
2022-10-26T14:02:46.448Z,45.14
2022-10-26T14:05:17.072Z,45.51
2022-10-26T14:07:57.303Z,43.17
2022-10-26T14:10:31.783Z,43.28
2022-10-26T14:12:59.380Z,41.15
2022-10-26T14:15:30.744Z,39.96
2022-10-26T14:17:58.597Z,41.53
2022-10-26T14:20:28.124Z,43.81
2022-10-26T14:22:54.795Z,43.02
2022-10-26T14:25:58.548Z,43.86
2022-10-26T14:28:28.507Z,42.95
2022-10-26T14:30:57.179Z,39.84
2022-10-26T14:33:29.145Z,42.70
2022-10-26T14:35:56.505Z,43.17
2022-10-26T14:38:30.283Z,45.51
2022-10-26T14:41:00.757Z,43.44
2022-10-26T14:43:28.960Z,43.75
2022-10-26T14:45:57.465Z,41.00
2022-10-26T14:48:36.788Z,41.43
2022-10-26T14:51:29.966Z,39.81
2022-10-26T14:54:03.678Z,40.50
2022-10-26T15:00:28.475Z,41.47
2022-10-26T15:03:07.912Z,43.72
2022-10-26T15:05:36.860Z,42.57
2022-10-26T15:08:03.595Z,43.51
2022-10-26T15:10:39.644Z,45.15
2022-10-26T15:13:25.076Z,47.00
2022-10-26T15:15:54.938Z,50.02
2022-10-26T15:18:35.580Z,53.68
2022-10-26T15:21:02.440Z,55.88
2022-10-26T15:23:30.917Z,58.24
2022-10-26T15:26:00.770Z,60.25
2022-10-26T15:28:36.532Z,62.47
2022-10-26T15:31:28.091Z,64.54
2022-10-26T15:34:07.203Z,64.90
2022-10-26T15:36:35.733Z,66.61
2022-10-26T15:39:02.355Z,68.58
2022-10-26T15:41:37.709Z,70.07
2022-10-26T15:44:13.978Z,71.98
2022-10-26T15:46:40.740Z,72.28
2022-10-26T15:49:14.533Z,73.83
2022-10-26T15:51:41.160Z,75.14
2022-10-26T15:54:09.244Z,76.27
2022-10-26T15:56:36.815Z,76.55
2022-10-26T15:59:03.506Z,77.42
2022-10-26T16:01:30.486Z,78.10
2022-10-26T16:03:57.138Z,77.11
2022-10-26T16:06:28.390Z,78.88
2022-10-26T16:08:58.151Z,79.80
2022-10-26T16:11:25.172Z,80.57
2022-10-26T16:13:52.016Z,80.83
2022-10-26T16:16:19.937Z,80.81
2022-10-26T16:18:49.088Z,81.47
2022-10-26T16:21:18.192Z,80.62
2022-10-26T16:23:50.525Z,82.29
2022-10-26T16:26:17.721Z,83.98
2022-10-26T16:28:44.884Z,84.45
2022-10-26T16:31:14.384Z,85.56
2022-10-26T16:33:41.067Z,86.07
2022-10-26T16:36:08.414Z,85.70
2022-10-26T16:38:35.046Z,86.36
2022-10-26T16:41:10.154Z,87.11
2022-10-26T16:43:40.465Z,86.84
2022-10-26T16:46:13.969Z,84.20
2022-10-26T16:48:42.334Z,87.38
2022-10-26T16:51:11.088Z,87.03
2022-10-26T16:53:38.314Z,87.59
2022-10-26T16:56:07.489Z,88.04
2022-10-26T16:58:36.863Z,88.30
2022-10-26T17:01:05.325Z,89.34
2022-10-26T17:03:32.440Z,89.85
2022-10-26T17:06:08.391Z,89.48
2022-10-26T17:08:36.465Z,90.15
2022-10-26T17:11:12.118Z,92.74
2022-10-26T17:13:39.995Z,92.37
2022-10-26T17:16:18.106Z,92.63
2022-10-26T17:18:45.559Z,93.05
2022-10-26T17:21:15.743Z,93.32
2022-10-26T17:23:42.535Z,93.90
2022-10-26T17:26:11.375Z,93.66
2022-10-26T17:28:38.172Z,94.09
2022-10-26T17:31:06.092Z,93.64
2022-10-26T17:33:37.210Z,94.03
2022-10-26T17:36:05.808Z,94.76
2022-10-26T17:38:34.712Z,95.09
2022-10-26T17:41:03.275Z,95.31
2022-10-26T17:43:31.315Z,95.58
2022-10-26T17:46:01.450Z,95.60
2022-10-26T17:48:29.554Z,96.42
2022-10-26T17:50:59.558Z,96.97
2022-10-26T17:53:26.242Z,97.12
2022-10-26T17:56:06.242Z,97.37
2022-10-26T17:58:34.188Z,96.91
2022-10-26T18:01:05.506Z,95.21
2022-10-26T18:03:32.513Z,94.48
2022-10-26T18:05:59.629Z,94.85
2022-10-26T18:08:27.245Z,94.32
2022-10-26T18:10:58.629Z,96.04
2022-10-26T18:13:27.649Z,95.27
2022-10-26T18:15:54.195Z,96.79
2022-10-26T18:18:20.852Z,100.00
2022-10-26T18:20:47.517Z,100.00
2022-10-26T18:23:14.269Z,100.00
2022-10-26T18:25:40.850Z,100.00
2022-10-26T18:28:07.451Z,100.00
2022-10-26T18:30:34.077Z,100.00
2022-10-26T18:33:00.753Z,100.00
2022-10-26T18:35:27.422Z,100.00
2022-10-26T18:37:54.422Z,100.00
2022-10-26T18:40:21.306Z,100.00
2022-10-26T18:42:48.128Z,100.00
2022-10-26T18:45:15.036Z,100.00
2022-10-26T18:47:41.690Z,100.00
2022-10-26T18:50:08.706Z,100.00
2022-10-26T18:52:35.291Z,100.00
2022-10-26T18:55:02.128Z,100.00
2022-10-26T18:57:29.069Z,100.00
2022-10-26T18:59:56.424Z,100.00
2022-10-26T19:02:23.269Z,100.00
2022-10-26T19:04:51.643Z,100.00
2022-10-26T19:07:18.244Z,100.00
2022-10-26T19:09:44.855Z,100.00
2022-10-26T19:12:11.708Z,100.00
2022-10-26T19:14:38.344Z,100.00
2022-10-26T19:17:04.971Z,100.00
2022-10-26T19:19:31.595Z,100.00
2022-10-26T19:22:00.161Z,100.00
2022-10-26T19:24:26.777Z,100.00
2022-10-26T19:26:54.613Z,100.00
2022-10-26T19:29:21.785Z,100.00
2022-10-26T19:31:52.124Z,100.00
2022-10-26T19:34:18.867Z,100.00
2022-10-26T19:36:47.055Z,100.00
2022-10-26T19:39:17.692Z,100.00
2022-10-26T19:41:45.560Z,100.00
2022-10-26T19:44:14.566Z,100.00
2022-10-26T19:46:43.254Z,100.00
2022-10-26T19:49:10.156Z,100.00
2022-10-26T19:51:36.876Z,100.00
2022-10-26T19:54:06.038Z,100.00
2022-10-26T19:56:35.944Z,100.00
2022-10-26T19:59:04.538Z,100.00
2022-10-26T20:01:31.617Z,100.00
2022-10-26T20:04:02.420Z,100.00
2022-10-26T20:06:31.147Z,100.00
2022-10-26T20:09:00.170Z,100.00
2022-10-26T20:11:29.298Z,100.00
2022-10-26T20:14:00.288Z,100.00
2022-10-26T20:16:28.295Z,100.00
2022-10-26T20:18:55.842Z,100.00
2022-10-26T20:21:22.405Z,100.00
2022-10-26T20:23:50.453Z,100.00
2022-10-26T20:26:20.007Z,100.00
2022-10-26T20:28:52.421Z,100.00
2022-10-26T20:31:20.165Z,100.00
2022-10-26T20:33:56.972Z,100.00
2022-10-26T20:36:25.243Z,100.00
2022-10-26T20:38:52.328Z,100.00
2022-10-26T20:41:20.380Z,100.00
2022-10-26T20:43:51.380Z,100.00
2022-10-26T20:46:27.678Z,100.00
2022-10-26T20:48:55.672Z,100.00
2022-10-26T20:51:51.979Z,100.00
2022-10-26T20:54:38.235Z,100.00
2022-10-26T20:57:10.871Z,100.00
2022-10-26T20:59:48.134Z,100.00
2022-10-26T21:02:16.276Z,100.00
2022-10-26T21:04:44.216Z,100.00
2022-10-26T21:07:11.846Z,100.00
2022-10-26T21:09:39.753Z,100.00
2022-10-26T21:12:07.800Z,100.00
2022-10-26T21:14:40.610Z,100.00
2022-10-26T21:17:09.169Z,100.00
2022-10-26T21:19:36.128Z,100.00
2022-10-26T21:22:04.183Z,100.00
2022-10-26T21:24:32.073Z,100.00
2022-10-26T21:27:00.328Z,100.00
2022-10-26T21:29:28.361Z,100.00
2022-10-26T21:31:56.475Z,100.00
2022-10-26T21:34:23.020Z,100.00
2022-10-26T21:36:51.069Z,100.00
2022-10-26T21:39:21.488Z,100.00
2022-10-26T21:42:03.282Z,100.00
2022-10-26T21:44:41.062Z,100.00
2022-10-26T21:47:10.720Z,100.00
2022-10-26T21:49:37.420Z,100.00
2022-10-26T21:52:04.639Z,100.00
2022-10-26T21:54:31.234Z,100.00
2022-10-26T21:56:59.399Z,100.00
2022-10-26T21:59:27.072Z,100.00
2022-10-26T22:01:53.793Z,100.00
2022-10-26T22:04:21.990Z,100.00
2022-10-26T22:06:50.014Z,100.00
2022-10-26T22:09:17.364Z,100.00
2022-10-26T22:11:43.959Z,100.00
2022-10-26T22:14:14.292Z,100.00
2022-10-26T22:16:42.626Z,100.00
2022-10-26T22:19:09.665Z,100.00
2022-10-26T22:21:39.865Z,100.00
2022-10-26T22:24:08.378Z,100.00
2022-10-26T22:26:37.231Z,100.00
2022-10-26T22:29:05.821Z,100.00
2022-10-26T22:31:37.428Z,100.00
2022-10-26T22:34:08.113Z,100.00
2022-10-26T22:36:36.399Z,100.00
2022-10-26T22:39:04.778Z,100.00
2022-10-26T22:41:32.592Z,100.00
2022-10-26T22:44:00.550Z,100.00
2022-10-26T22:46:28.777Z,100.00
2022-10-26T22:49:00.830Z,100.00
2022-10-26T22:51:34.990Z,100.00
2022-10-26T22:54:04.672Z,100.00
2022-10-26T22:56:34.034Z,100.00
2022-10-26T22:59:02.286Z,100.00
2022-10-26T23:01:33.834Z,100.00
2022-10-26T23:04:02.120Z,100.00
2022-10-26T23:06:31.638Z,100.00
2022-10-26T23:09:01.354Z,100.00
2022-10-26T23:11:30.173Z,100.00
2022-10-26T23:13:59.882Z,100.00
2022-10-26T23:16:28.848Z,100.00
2022-10-26T23:18:56.647Z,100.00
2022-10-26T23:23:58.603Z,100.00
2022-10-26T23:26:26.567Z,100.00
2022-10-26T23:28:54.378Z,100.00
2022-10-26T23:31:25.750Z,100.00
2022-10-26T23:33:53.961Z,100.00
2022-10-26T23:36:22.386Z,100.00
2022-10-26T23:38:50.080Z,100.00
2022-10-26T23:41:17.863Z,100.00
2022-10-26T23:43:44.451Z,100.00
2022-10-26T23:46:12.483Z,100.00
2022-10-26T23:48:40.152Z,100.00
2022-10-26T23:51:07.034Z,100.00
2022-10-26T23:53:35.381Z,100.00
2022-10-26T23:56:03.575Z,100.00
2022-10-26T23:58:31.602Z,100.00
